Time;durP1;ratioP1;P1;durP2;ratioP2;P2;SDS_P1;SDS_P2;PMS_P1;PMS_P2;Temp;Humidity;BMP_temperature;BMP_pressure;BME280_temperature;BME280_humidity;BME280_pressure;Samples;Min_cycle;Max_cycle;Signal;HPM_P1;HPM_P2
2022/08/31 00:05:23;;;;;;;1.23;0.90;;;11.90;99.90;;;;;;5081359;28;20409;-68
2022/08/31 00:07:50;;;;;;;1.90;0.43;;;11.90;99.90;;;;;;5082470;28;20151;-67
2022/08/31 00:10:19;;;;;;;1.00;0.40;;;11.90;99.90;;;;;;5096847;28;20050;-70
2022/08/31 00:13:04;;;;;;;0.95;0.43;;;12.00;99.90;;;;;;5085159;28;20050;-66
2022/08/31 00:15:34;;;;;;;5.82;1.85;;;12.00;99.90;;;;;;5086888;28;20043;-65
2022/08/31 00:18:01;;;;;;;2.45;0.90;;;12.10;99.90;;;;;;5087468;28;20059;-69
2022/08/31 00:20:28;;;;;;;0.73;0.30;;;12.10;99.90;;;;;;5087183;28;20131;-65
2022/08/31 00:23:03;;;;;;;5.45;2.42;;;12.00;99.90;;;;;;5085393;28;20055;-71
2022/08/31 00:25:32;;;;;;;1.92;0.82;;;12.00;99.90;;;;;;5087192;28;20757;-66
2022/08/31 00:27:59;;;;;;;1.75;0.60;;;11.90;99.90;;;;;;5084072;28;20456;-73
2022/08/31 00:30:27;;;;;;;2.33;1.02;;;11.90;99.90;;;;;;5068651;28;20054;-68
2022/08/31 00:32:54;;;;;;;1.25;0.75;;;11.90;99.90;;;;;;5081186;28;20097;-65
2022/08/31 00:35:26;;;;;;;1.00;0.22;;;11.90;99.90;;;;;;5084775;28;20044;-67
2022/08/31 00:37:53;;;;;;;3.25;0.70;;;12.00;99.90;;;;;;5087112;28;20075;-66
2022/08/31 00:40:21;;;;;;;0.88;0.40;;;12.00;99.90;;;;;;5078355;28;20074;-65
2022/08/31 00:42:48;;;;;;;1.15;0.70;;;12.00;99.90;;;;;;5077474;28;20055;-69
2022/08/31 00:45:15;;;;;;;4.18;0.75;;;12.00;99.90;;;;;;5081001;28;20063;-67
2022/08/31 00:47:42;;;;;;;3.22;0.82;;;12.00;99.90;;;;;;5087326;28;20043;-67
2022/08/31 00:50:12;;;;;;;1.08;0.40;;;12.00;99.90;;;;;;5086160;28;20048;-65
2022/08/31 00:52:41;;;;;;;1.50;0.50;;;12.00;99.90;;;;;;5085115;28;20444;-67
2022/08/31 00:55:14;;;;;;;1.45;1.08;;;12.00;99.90;;;;;;5086542;28;20058;-65
2022/08/31 00:57:44;;;;;;;2.63;0.52;;;12.00;99.90;;;;;;5086708;28;20161;-65
2022/08/31 01:00:16;;;;;;;2.88;0.90;;;12.00;99.90;;;;;;5064367;28;20044;-66
2022/08/31 01:02:44;;;;;;;2.83;0.50;;;12.10;99.90;;;;;;5066393;28;20042;-65
2022/08/31 01:05:12;;;;;;;4.47;1.05;;;12.10;99.90;;;;;;5086164;28;20055;-67
2022/08/31 01:07:40;;;;;;;2.20;0.95;;;12.10;99.90;;;;;;5086229;28;20109;-68
2022/08/31 01:10:08;;;;;;;0.70;0.50;;;12.20;99.90;;;;;;5085806;28;20396;-66
2022/08/31 01:12:36;;;;;;;4.95;0.85;;;12.10;99.90;;;;;;5084274;28;20052;-69
2022/08/31 01:15:06;;;;;;;1.85;1.08;;;12.20;99.90;;;;;;5069884;28;20052;-66
2022/08/31 01:17:35;;;;;;;0.88;0.40;;;12.30;99.90;;;;;;5083409;28;20454;-70
2022/08/31 01:20:28;;;;;;;4.50;0.90;;;12.30;99.90;;;;;;5086241;28;20052;-67
2022/08/31 01:23:08;;;;;;;1.52;0.80;;;12.20;99.90;;;;;;5083994;28;20040;-67
2022/08/31 01:25:37;;;;;;;0.82;0.65;;;12.20;99.90;;;;;;5084060;28;20044;-69
2022/08/31 01:28:07;;;;;;;2.40;1.00;;;12.10;99.90;;;;;;5067167;28;20460;-66
2022/08/31 01:30:34;;;;;;;1.48;0.70;;;12.00;99.90;;;;;;5070938;28;20075;-65
2022/08/31 01:33:02;;;;;;;1.00;0.47;;;12.00;99.90;;;;;;5082992;28;20047;-67
2022/08/31 01:35:30;;;;;;;3.58;1.17;;;11.90;99.90;;;;;;5085290;28;20051;-69
2022/08/31 01:37:57;;;;;;;0.80;0.80;;;11.90;99.90;;;;;;5085337;28;20715;-67
2022/08/31 01:40:33;;;;;;;1.40;0.93;;;11.90;99.90;;;;;;5066721;28;20089;-70
2022/08/31 01:43:00;;;;;;;6.10;1.13;;;11.90;99.90;;;;;;5084346;28;20054;-71
2022/08/31 01:45:28;;;;;;;2.72;0.50;;;11.90;99.90;;;;;;5067008;28;20044;-69
2022/08/31 01:47:57;;;;;;;9.98;0.90;;;11.90;99.90;;;;;;5082516;28;20078;-67
2022/08/31 01:50:24;;;;;;;2.63;0.70;;;12.00;99.90;;;;;;5067023;28;20044;-68
2022/08/31 01:52:51;;;;;;;2.97;0.60;;;11.90;99.90;;;;;;5083105;28;20052;-65
2022/08/31 01:55:18;;;;;;;4.85;0.80;;;11.90;99.90;;;;;;5066194;28;20366;-71
2022/08/31 01:57:45;;;;;;;5.07;1.23;;;11.90;99.90;;;;;;5085345;28;20071;-64
2022/08/31 02:00:31;;;;;;;3.03;1.77;;;11.80;99.90;;;;;;5077185;28;20739;-66
2022/08/31 02:03:00;;;;;;;4.93;1.80;;;11.80;99.90;;;;;;5084638;28;20084;-65
2022/08/31 02:05:28;;;;;;;10.25;1.75;;;11.80;99.90;;;;;;5064268;28;20112;-67
2022/08/31 02:07:56;;;;;;;4.72;1.50;;;11.80;99.90;;;;;;5065615;28;20139;-67
2022/08/31 02:10:23;;;;;;;3.42;0.90;;;11.80;99.90;;;;;;5073768;28;20693;-69
2022/08/31 02:12:51;;;;;;;4.22;1.40;;;11.80;99.90;;;;;;5047889;28;20508;-66
2022/08/31 02:15:28;;;;;;;2.70;0.75;;;11.80;99.90;;;;;;5083615;28;20147;-70
2022/08/31 02:17:55;;;;;;;4.82;1.00;;;11.80;99.90;;;;;;5085357;28;20162;-67
2022/08/31 02:20:22;;;;;;;1.75;0.75;;;11.70;99.90;;;;;;5063873;28;20058;-72
2022/08/31 02:22:50;;;;;;;2.47;1.05;;;11.80;99.90;;;;;;5063493;28;20074;-64
2022/08/31 02:25:17;;;;;;;5.40;0.82;;;11.80;99.90;;;;;;5082927;28;20129;-70
2022/08/31 02:27:44;;;;;;;2.25;0.77;;;11.90;99.90;;;;;;5082451;28;20044;-72
2022/08/31 02:30:19;;;;;;;2.58;0.60;;;11.90;99.90;;;;;;5069308;28;20063;-66
2022/08/31 02:32:46;;;;;;;5.82;1.38;;;11.90;99.90;;;;;;5059699;28;20052;-65
2022/08/31 02:35:13;;;;;;;4.22;0.82;;;11.90;99.90;;;;;;5062155;28;20067;-67
2022/08/31 02:37:40;;;;;;;2.92;0.80;;;11.90;99.90;;;;;;5065590;28;20059;-66
2022/08/31 02:40:09;;;;;;;3.42;1.13;;;11.80;99.90;;;;;;5083623;28;20112;-67
2022/08/31 02:42:41;;;;;;;0.90;0.82;;;11.80;99.90;;;;;;5059689;28;20135;-69
2022/08/31 02:45:22;;;;;;;1.70;0.88;;;11.80;99.90;;;;;;5065991;28;20473;-66
2022/08/31 02:47:50;;;;;;;3.58;0.63;;;11.80;99.90;;;;;;5072012;28;20736;-67
2022/08/31 02:50:27;;;;;;;3.40;0.85;;;11.80;99.90;;;;;;5072698;28;20047;-64
2022/08/31 02:52:55;;;;;;;3.85;1.15;;;11.80;99.90;;;;;;5061270;28;20446;-68
2022/08/31 02:55:24;;;;;;;2.40;0.95;;;11.80;99.90;;;;;;5065165;28;20054;-64
2022/08/31 02:57:52;;;;;;;2.05;1.35;;;11.80;99.90;;;;;;5083424;28;20132;-64
2022/08/31 03:00:21;;;;;;;3.25;1.00;;;11.80;99.90;;;;;;5083318;28;20071;-71
2022/08/31 03:02:49;;;;;;;3.88;1.27;;;11.80;99.90;;;;;;5081529;28;20036;-66
2022/08/31 03:05:16;;;;;;;5.45;1.10;;;11.80;99.90;;;;;;5066071;28;20064;-66
2022/08/31 03:07:44;;;;;;;4.15;0.98;;;11.80;99.90;;;;;;5080641;28;20160;-69
2022/08/31 03:10:13;;;;;;;4.53;0.90;;;11.80;99.90;;;;;;5064878;28;20529;-66
2022/08/31 03:12:41;;;;;;;1.85;1.05;;;11.80;99.90;;;;;;5064098;28;20789;-65
2022/08/31 03:15:09;;;;;;;1.23;0.65;;;11.80;99.90;;;;;;5083817;28;20048;-68
2022/08/31 03:17:36;;;;;;;7.05;1.23;;;11.70;99.90;;;;;;5049806;28;20489;-67
2022/08/31 03:20:05;;;;;;;2.15;1.00;;;11.70;99.90;;;;;;5067521;28;20064;-66
2022/08/31 03:22:33;;;;;;;4.07;0.75;;;11.70;99.90;;;;;;5063686;28;20059;-69
2022/08/31 03:25:00;;;;;;;7.40;1.23;;;11.80;99.90;;;;;;5059909;28;20056;-68
2022/08/31 03:27:29;;;;;;;3.35;0.93;;;11.80;99.90;;;;;;5065258;28;20136;-68
2022/08/31 03:29:57;;;;;;;1.42;1.05;;;11.80;99.90;;;;;;5065376;28;20614;-68
2022/08/31 03:32:26;;;;;;;4.30;1.70;;;11.80;99.90;;;;;;5062837;28;20047;-65
2022/08/31 03:34:55;;;;;;;6.75;1.77;;;11.80;99.90;;;;;;5062566;28;20466;-68
2022/08/31 03:37:23;;;;;;;1.23;0.60;;;11.80;99.90;;;;;;5061373;28;20052;-71
2022/08/31 03:39:52;;;;;;;3.08;1.45;;;11.80;99.90;;;;;;5059453;28;20126;-64
2022/08/31 03:42:20;;;;;;;4.82;0.80;;;11.80;99.90;;;;;;5064132;28;20052;-69
2022/08/31 03:44:47;;;;;;;2.25;0.55;;;11.80;99.90;;;;;;5059624;28;20370;-65
2022/08/31 03:47:26;;;;;;;3.53;0.80;;;11.80;99.90;;;;;;5060878;28;20063;-66
2022/08/31 03:49:54;;;;;;;3.10;0.90;;;11.80;99.90;;;;;;5061428;28;20055;-65
2022/08/31 03:52:24;;;;;;;3.28;0.70;;;11.80;99.90;;;;;;5062087;28;20078;-65
2022/08/31 03:55:09;;;;;;;3.00;1.00;;;11.80;99.90;;;;;;5048341;28;20066;-65
2022/08/31 03:57:38;;;;;;;4.22;0.98;;;11.80;99.90;;;;;;5062304;28;20149;-65
2022/08/31 04:00:06;;;;;;;2.65;1.27;;;11.80;99.90;;;;;;5060593;28;20099;-67
2022/08/31 04:02:40;;;;;;;4.38;1.25;;;11.80;99.90;;;;;;5052309;28;20044;-65
2022/08/31 04:05:30;;;;;;;5.20;1.50;;;11.80;99.90;;;;;;5057902;28;20577;-71
2022/08/31 04:08:17;;;;;;;3.70;1.10;;;11.80;99.90;;;;;;5063315;28;20055;-69
2022/08/31 04:10:47;;;;;;;2.20;0.80;;;11.80;99.90;;;;;;5060321;28;20048;-70
2022/08/31 04:13:33;;;;;;;3.13;0.88;;;11.80;99.90;;;;;;5058649;28;20370;-69
2022/08/31 04:16:14;;;;;;;3.75;1.27;;;11.80;99.90;;;;;;5066957;28;20052;-65
2022/08/31 04:19:05;;;;;;;4.55;0.60;;;11.80;99.90;;;;;;5065349;28;20124;-64
2022/08/31 04:21:39;;;;;;;3.55;0.90;;;11.80;99.90;;;;;;5060768;28;20072;-67
2022/08/31 04:24:10;;;;;;;2.95;1.20;;;11.80;99.90;;;;;;5065705;28;20045;-66
2022/08/31 04:26:39;;;;;;;3.83;2.25;;;11.80;99.90;;;;;;5079236;28;20048;-74
2022/08/31 04:29:08;;;;;;;2.95;1.50;;;11.80;99.90;;;;;;5079960;28;20158;-71
2022/08/31 04:31:40;;;;;;;6.57;2.35;;;11.80;99.90;;;;;;5057124;28;20368;-64
2022/08/31 04:34:07;;;;;;;4.70;1.75;;;11.80;99.90;;;;;;5064709;28;20099;-65
2022/08/31 04:36:36;;;;;;;4.47;0.98;;;11.90;99.90;;;;;;5057926;28;20071;-68
2022/08/31 04:39:04;;;;;;;1.00;0.70;;;11.90;99.90;;;;;;5045464;28;20082;-70
2022/08/31 04:41:34;;;;;;;1.90;0.90;;;11.90;99.90;;;;;;5046523;28;20048;-66
2022/08/31 04:44:02;;;;;;;1.70;0.70;;;11.90;99.90;;;;;;5043287;28;20757;-69
2022/08/31 04:46:31;;;;;;;3.13;1.10;;;11.90;99.90;;;;;;5043738;28;20132;-65
2022/08/31 04:48:58;;;;;;;1.48;0.75;;;11.90;99.90;;;;;;5042745;28;20053;-68
2022/08/31 04:51:29;;;;;;;4.65;1.00;;;11.90;99.90;;;;;;5047853;28;20045;-68
2022/08/31 04:53:57;;;;;;;3.88;2.15;;;11.90;99.90;;;;;;5044963;28;20045;-72
2022/08/31 04:56:29;;;;;;;1.20;0.90;;;11.90;99.90;;;;;;5044458;28;20049;-65
2022/08/31 04:59:01;;;;;;;1.60;1.15;;;11.90;99.90;;;;;;5040285;28;20053;-70
2022/08/31 05:01:33;;;;;;;7.57;1.50;;;12.00;99.90;;;;;;5056503;28;20056;-66
2022/08/31 05:04:15;;;;;;;3.08;0.90;;;12.00;99.90;;;;;;5044533;28;20104;-68
2022/08/31 05:06:43;;;;;;;1.25;0.85;;;12.00;99.90;;;;;;5042672;28;20060;-68
2022/08/31 05:09:14;;;;;;;;;;;12.10;99.90;;;;;;5042775;28;20122;-72
2022/08/31 05:11:44;;;;;;;6.47;1.25;;;12.10;99.90;;;;;;5046205;28;19921;-67
2022/08/31 05:14:11;;;;;;;6.60;1.10;;;12.10;99.90;;;;;;5041972;28;20056;-68
2022/08/31 05:16:42;;;;;;;1.70;1.30;;;12.20;99.90;;;;;;5040778;28;20057;-67
2022/08/31 05:19:10;;;;;;;3.90;1.45;;;12.20;99.90;;;;;;5044751;28;20479;-67
2022/08/31 05:21:39;;;;;;;2.75;0.80;;;12.20;99.90;;;;;;5040623;28;20044;-69
2022/08/31 05:24:11;;;;;;;6.57;1.02;;;12.20;99.90;;;;;;5043055;28;20045;-70
2022/08/31 05:26:46;;;;;;;3.05;1.45;;;12.30;99.90;;;;;;5054879;28;20045;-65
2022/08/31 05:29:18;;;;;;;5.18;0.90;;;12.30;99.90;;;;;;5059948;28;20029;-70
2022/08/31 05:31:46;;;;;;;3.72;1.67;;;12.40;99.90;;;;;;5039528;28;20764;-68
2022/08/31 05:34:20;;;;;;;4.05;1.35;;;12.40;99.90;;;;;;5040999;28;20076;-69
2022/08/31 05:36:53;;;;;;;3.53;1.65;;;12.50;99.90;;;;;;5055096;28;20069;-64
2022/08/31 05:39:20;;;;;;;5.95;1.63;;;12.60;99.90;;;;;;5042631;28;20049;-65
2022/08/31 05:41:47;;;;;;;3.03;1.00;;;12.60;99.90;;;;;;5044304;28;20094;-64
2022/08/31 05:44:18;;;;;;;2.45;1.23;;;12.70;99.90;;;;;;5044866;28;20106;-71
2022/08/31 05:46:46;;;;;;;7.97;2.03;;;12.70;99.90;;;;;;5039311;28;20674;-67
2022/08/31 05:49:23;;;;;;;4.70;1.63;;;12.80;99.90;;;;;;5049021;28;20037;-66
2022/08/31 05:51:55;;;;;;;4.30;0.90;;;12.80;99.90;;;;;;5050281;28;20160;-64
2022/08/31 05:54:22;;;;;;;4.32;1.15;;;12.80;99.90;;;;;;5049911;28;20056;-66
2022/08/31 05:56:49;;;;;;;2.88;1.27;;;12.80;99.90;;;;;;5040877;28;20045;-67
2022/08/31 05:59:16;;;;;;;3.28;1.20;;;12.70;99.90;;;;;;5042395;28;20111;-64
2022/08/31 06:01:44;;;;;;;12.25;2.67;;;12.70;99.90;;;;;;5046928;28;20424;-68
2022/08/31 06:04:11;;;;;;;2.83;0.70;;;12.70;99.90;;;;;;5039350;28;20057;-66
2022/08/31 06:06:38;;;;;;;5.03;1.25;;;12.80;99.90;;;;;;5040833;28;20045;-68
2022/08/31 06:09:07;;;;;;;4.95;1.90;;;12.80;99.90;;;;;;5045931;28;20640;-72
2022/08/31 06:11:37;;;;;;;1.45;0.98;;;12.90;99.90;;;;;;5056038;28;20056;-66
2022/08/31 06:14:04;;;;;;;1.33;0.70;;;12.90;99.90;;;;;;5041489;28;20056;-71
2022/08/31 06:16:32;;;;;;;2.13;0.90;;;12.90;99.90;;;;;;5042519;28;20154;-66
2022/08/31 06:19:02;;;;;;;2.33;1.05;;;12.90;99.90;;;;;;5042321;28;20445;-70
2022/08/31 06:21:37;;;;;;;7.45;3.03;;;13.00;99.90;;;;;;5050180;28;20098;-66
2022/08/31 06:24:05;;;;;;;4.20;0.80;;;13.00;99.90;;;;;;5041285;28;20131;-70
2022/08/31 06:26:34;;;;;;;2.97;0.93;;;13.10;99.90;;;;;;5042574;28;20048;-68
2022/08/31 06:29:05;;;;;;;2.90;1.38;;;13.10;99.90;;;;;;5040031;28;20067;-69
2022/08/31 06:31:37;;;;;;;4.13;1.00;;;13.20;99.90;;;;;;5043833;28;20072;-68
2022/08/31 06:34:07;;;;;;;3.05;0.85;;;13.20;99.90;;;;;;5039046;28;20037;-69
2022/08/31 06:37:00;;;;;;;0.65;0.65;;;13.20;99.90;;;;;;5040224;28;20056;-72
2022/08/31 06:39:32;;;;;;;3.28;0.80;;;13.20;99.90;;;;;;5046566;28;20144;-66
2022/08/31 06:42:22;;;;;;;;;;;13.30;99.90;;;;;;5011649;28;20061;-65
2022/08/31 06:45:01;;;;;;;3.88;1.17;;;13.40;99.90;;;;;;5026660;28;19917;-65
2022/08/31 06:47:39;;;;;;;1.65;0.70;;;13.40;99.90;;;;;;5033096;28;20168;-65
2022/08/31 06:50:07;;;;;;;1.30;0.82;;;13.50;99.90;;;;;;5021877;28;20060;-66
2022/08/31 06:52:35;;;;;;;3.00;0.80;;;13.50;99.90;;;;;;5018293;28;20099;-69
2022/08/31 06:55:21;;;;;;;1.50;1.02;;;13.50;99.90;;;;;;5018472;28;20416;-68
2022/08/31 06:58:06;;;;;;;1.52;0.50;;;13.60;99.90;;;;;;5021360;28;20164;-71
2022/08/31 07:00:52;;;;;;;4.88;1.75;;;13.60;99.90;;;;;;5015005;28;20130;-66
2022/08/31 07:03:23;;;;;;;3.95;0.75;;;13.70;99.90;;;;;;5023469;28;20140;-66
2022/08/31 07:05:52;;;;;;;3.60;0.80;;;13.80;99.90;;;;;;5021426;28;20072;-65
2022/08/31 07:08:20;;;;;;;5.85;1.30;;;13.80;99.90;;;;;;5017548;28;20674;-65
2022/08/31 07:10:47;;;;;;;1.40;0.60;;;13.90;99.90;;;;;;5024049;28;20079;-66
2022/08/31 07:13:14;;;;;;;1.25;0.70;;;13.90;99.90;;;;;;5041433;28;20049;-68
2022/08/31 07:15:41;;;;;;;7.22;2.28;;;13.90;99.90;;;;;;5039405;28;20045;-69
2022/08/31 07:18:08;;;;;;;5.03;0.70;;;13.90;99.90;;;;;;5049878;28;20079;-69
2022/08/31 07:20:36;;;;;;;1.25;0.40;;;13.90;99.90;;;;;;5043471;28;20056;-70
2022/08/31 07:23:07;;;;;;;1.38;0.30;;;14.00;99.90;;;;;;5039361;28;20103;-70
2022/08/31 07:25:38;;;;;;;2.47;0.85;;;14.00;99.90;;;;;;5040619;28;20083;-66
2022/08/31 07:28:05;;;;;;;0.88;0.35;;;14.00;99.90;;;;;;5043863;28;20059;-66
2022/08/31 07:30:36;;;;;;;1.40;0.45;;;14.00;99.90;;;;;;5039949;28;20044;-66
2022/08/31 07:33:05;;;;;;;2.33;0.85;;;14.00;99.90;;;;;;5040295;28;20052;-65
2022/08/31 07:35:34;;;;;;;;;;;14.00;99.90;;;;;;5046054;28;20041;-68
2022/08/31 07:43:58;;;;;;;4.90;1.10;;;14.10;99.90;;;;;;5062056;28;20130;-69
2022/08/31 07:46:30;;;;;;;3.97;0.93;;;14.10;99.90;;;;;;5076697;28;20044;-68
2022/08/31 07:48:58;;;;;;;1.30;0.47;;;14.10;99.90;;;;;;5065392;28;20056;-67
2022/08/31 07:51:51;;;;;;;3.70;0.40;;;14.10;99.90;;;;;;5057949;28;20052;-70
2022/08/31 07:54:43;;;;;;;2.47;0.65;;;14.10;99.90;;;;;;5063130;28;20047;-71
2022/08/31 07:57:24;;;;;;;1.60;0.93;;;14.20;99.90;;;;;;5068515;28;20113;-65
2022/08/31 07:59:54;;;;;;;3.13;0.98;;;14.20;99.90;;;;;;5069779;28;20054;-72
2022/08/31 08:02:22;;;;;;;2.80;0.68;;;14.30;99.90;;;;;;5071367;28;20079;-68
2022/08/31 08:04:52;;;;;;;1.45;0.60;;;14.30;99.90;;;;;;5070179;28;20155;-70
2022/08/31 08:07:52;;;;;;;;;;;14.30;99.90;;;;;;5085233;28;20066;-69
2022/08/31 08:10:41;;;;;;;1.05;0.73;;;14.30;99.90;;;;;;5064446;28;20393;-69
2022/08/31 08:13:27;;;;;;;1.77;0.30;;;14.30;99.90;;;;;;5066976;28;20105;-66
2022/08/31 08:16:05;;;;;;;2.15;0.40;;;14.40;99.90;;;;;;5068265;28;20147;-67
2022/08/31 08:18:55;;;;;;;2.55;0.50;;;14.40;99.90;;;;;;5063027;28;20347;-72
2022/08/31 08:21:27;;;;;;;0.60;0.40;;;14.50;99.90;;;;;;5067068;28;20075;-69
2022/08/31 08:23:54;;;;;;;0.73;0.40;;;14.50;99.90;;;;;;5078646;28;20225;-69
2022/08/31 08:26:45;;;;;;;2.17;1.15;;;14.50;99.90;;;;;;5077965;28;20055;-65
2022/08/31 08:29:31;;;;;;;0.30;0.30;;;14.60;99.90;;;;;;5085778;28;20051;-65
2022/08/31 08:32:00;;;;;;;2.08;0.52;;;14.60;99.90;;;;;;5068157;28;20481;-67
2022/08/31 08:34:28;;;;;;;1.88;0.60;;;14.70;99.90;;;;;;5068605;28;20062;-66
2022/08/31 08:37:00;;;;;;;1.30;0.50;;;14.70;99.90;;;;;;5066687;28;20133;-69
2022/08/31 08:39:28;;;;;;;1.38;0.35;;;14.70;99.90;;;;;;5086720;28;20040;-64
2022/08/31 08:42:20;;;;;;;1.60;0.70;;;14.80;99.90;;;;;;5082110;28;20044;-66
2022/08/31 08:44:47;;;;;;;1.08;0.30;;;14.80;99.90;;;;;;5077337;28;20147;-68
2022/08/31 08:47:21;;;;;;;0.60;0.60;;;14.90;99.90;;;;;;5068951;28;20370;-73
2022/08/31 08:50:02;;;;;;;1.77;0.55;;;14.90;99.90;;;;;;5062992;28;20362;-72
2022/08/31 08:52:40;;;;;;;1.98;0.68;;;14.90;99.90;;;;;;5068355;28;20055;-67
2022/08/31 08:55:11;;;;;;;1.63;0.60;;;15.00;99.90;;;;;;5075298;28;20044;-67
2022/08/31 08:57:41;;;;;;;1.15;0.55;;;15.00;99.90;;;;;;5086647;28;20450;-77
2022/08/31 09:00:19;;;;;;;1.58;0.52;;;15.10;99.90;;;;;;5064965;28;20044;-65
2022/08/31 09:03:03;;;;;;;0.90;0.50;;;15.20;99.90;;;;;;5065588;28;20055;-69
2022/08/31 09:06:13;;;;;;;1.85;0.85;;;15.20;99.90;;;;;;5044269;28;20047;-70
2022/08/31 09:09:08;;;;;;;3.05;1.00;;;15.20;99.90;;;;;;5077658;28;20052;-66
2022/08/31 09:12:06;;;;;;;1.92;0.80;;;15.20;99.90;;;;;;5060738;28;20048;-69
2022/08/31 09:14:52;;;;;;;2.97;0.70;;;15.20;99.90;;;;;;5054112;28;20036;-65
2022/08/31 09:17:48;;;;;;;2.72;1.00;;;15.20;99.90;;;;;;5085129;28;20141;-67
2022/08/31 09:20:16;;;;;;;3.63;0.70;;;15.20;99.90;;;;;;5067132;28;20373;-66
2022/08/31 09:22:51;;;;;;;4.22;0.50;;;15.20;99.90;;;;;;5065757;28;20173;-66
2022/08/31 09:25:31;;;;;;;2.47;0.40;;;15.10;99.90;;;;;;5066703;28;20127;-65
2022/08/31 09:28:15;;;;;;;1.45;0.40;;;15.00;99.90;;;;;;5067201;28;20071;-75
2022/08/31 09:30:42;;;;;;;3.17;0.60;;;15.10;99.90;;;;;;5081135;28;20036;-65
2022/08/31 09:33:16;;;;;;;0.82;0.30;;;15.10;99.90;;;;;;5086225;28;20047;-65
2022/08/31 09:35:44;;;;;;;1.25;0.63;;;15.10;99.90;;;;;;5085611;28;20076;-67
2022/08/31 09:38:24;;;;;;;1.48;0.40;;;15.10;99.90;;;;;;5085378;28;20052;-65
2022/08/31 09:40:51;;;;;;;;;;;15.10;99.90;;;;;;5085007;28;20466;-74
2022/08/31 09:43:23;;;;;;;0.40;0.30;;;15.10;99.90;;;;;;5086124;28;19966;-66
2022/08/31 09:46:04;;;;;;;0.88;0.68;;;15.20;99.90;;;;;;5083142;28;20048;-65
2022/08/31 09:48:42;;;;;;;5.57;0.63;;;15.20;99.90;;;;;;5083739;28;20105;-68
2022/08/31 09:51:19;;;;;;;2.90;1.35;;;15.10;99.90;;;;;;5084909;28;20074;-67
2022/08/31 09:56:53;;;;;;;2.65;0.50;;;15.00;99.90;;;;;;5081952;28;20048;-65
2022/08/31 09:59:43;;;;;;;0.93;0.40;;;14.90;99.90;;;;;;5084396;28;20051;-65
2022/08/31 10:02:23;;;;;;;1.85;0.50;;;14.90;99.90;;;;;;5081047;28;20051;-65
2022/08/31 10:04:53;;;;;;;0.82;0.57;;;15.00;99.90;;;;;;5081383;28;20048;-64
2022/08/31 10:07:32;;;;;;;1.13;0.30;;;15.10;99.90;;;;;;5086633;28;20043;-72
2022/08/31 10:10:16;;;;;;;1.85;0.80;;;15.10;99.90;;;;;;5081706;28;20150;-68
2022/08/31 10:13:14;;;;;;;4.03;0.80;;;15.20;99.90;;;;;;5082054;28;20123;-65
2022/08/31 10:15:47;;;;;;;1.48;0.40;;;15.20;99.90;;;;;;5082948;28;20040;-68
2022/08/31 10:18:38;;;;;;;0.90;0.52;;;15.20;99.90;;;;;;5082558;28;20062;-66
2022/08/31 10:21:12;;;;;;;2.55;0.25;;;15.20;99.90;;;;;;5082114;28;20150;-66
2022/08/31 10:23:53;;;;;;;3.35;1.70;;;15.30;99.90;;;;;;5094544;28;20077;-67
2022/08/31 10:26:32;;;;;;;1.83;0.82;;;15.30;99.90;;;;;;5085359;28;20166;-65
2022/08/31 10:29:05;;;;;;;2.05;0.95;;;15.40;99.90;;;;;;5082205;28;20072;-67
2022/08/31 10:31:44;;;;;;;0.52;0.20;;;15.40;99.90;;;;;;5085632;28;20470;-69
2022/08/31 10:37:30;;;;;;;1.92;1.45;;;15.60;99.90;;;;;;5080298;28;20110;-71
2022/08/31 10:40:04;;;;;;;0.90;0.40;;;15.70;99.90;;;;;;5082381;28;20465;-68
2022/08/31 10:42:45;;;;;;;1.55;0.63;;;15.70;99.90;;;;;;5082221;28;20047;-69
2022/08/31 10:45:23;;;;;;;3.38;1.25;;;15.80;99.90;;;;;;5083064;28;20065;-65
2022/08/31 10:47:54;;;;;;;5.32;0.55;;;15.80;99.90;;;;;;5082459;28;20048;-66
2022/08/31 10:50:51;;;;;;;0.90;0.50;;;15.90;99.90;;;;;;5084920;27;20109;-66
2022/08/31 10:53:32;;;;;;;0.50;0.50;;;15.90;99.90;;;;;;5081994;28;20595;-74
2022/08/31 10:56:31;;;;;;;1.02;0.32;;;15.90;99.90;;;;;;5086184;28;20137;-65
2022/08/31 10:59:10;;;;;;;1.20;0.20;;;16.00;99.90;;;;;;5086624;27;20051;-67
2022/08/31 11:02:04;;;;;;;0.55;0.30;;;16.10;99.90;;;;;;5085576;27;20543;-71
2022/08/31 11:05:19;;;;;;;0.77;0.40;;;16.10;99.90;;;;;;5083862;28;20607;-68
2022/08/31 11:08:10;;;;;;;2.45;0.43;;;16.10;99.90;;;;;;5082640;28;20089;-71
2022/08/31 11:10:53;;;;;;;3.80;0.68;;;16.10;99.90;;;;;;5077948;28;20036;-71
2022/08/31 11:13:30;;;;;;;8.90;0.77;;;16.00;99.90;;;;;;5098760;27;20074;-73
2022/08/31 11:16:03;;;;;;;2.35;0.75;;;16.10;99.90;;;;;;5081321;28;20101;-71
2022/08/31 11:18:39;;;;;;;1.23;0.50;;;16.20;99.90;;;;;;5084576;28;20084;-67
2022/08/31 11:21:44;;;;;;;0.57;0.30;;;16.20;99.90;;;;;;5083984;27;20032;-67
2022/08/31 11:24:30;;;;;;;2.38;0.22;;;16.20;99.90;;;;;;5082983;28;22487;-67
2022/08/31 11:27:22;;;;;;;3.50;0.50;;;16.20;99.90;;;;;;5092783;28;20465;-72
2022/08/31 11:29:55;;;;;;;1.17;0.45;;;16.30;99.90;;;;;;5088356;28;20134;-67
2022/08/31 11:32:36;;;;;;;1.13;0.30;;;16.20;99.90;;;;;;5089538;28;20059;-70
2022/08/31 11:35:09;;;;;;;1.50;0.40;;;16.30;99.90;;;;;;5093807;27;20051;-65
2022/08/31 11:37:49;;;;;;;0.60;0.40;;;16.20;99.90;;;;;;5089570;28;20039;-69
2022/08/31 11:40:43;;;;;;;1.00;0.30;;;16.40;99.90;;;;;;5087269;27;20040;-68
2022/08/31 11:43:14;;;;;;;0.65;0.35;;;16.40;99.90;;;;;;5072190;28;20040;-66
2022/08/31 11:45:42;;;;;;;1.50;0.50;;;16.40;99.90;;;;;;5090543;28;20116;-66
2022/08/31 11:48:49;;;;;;;1.42;0.85;;;16.30;99.90;;;;;;5087902;28;20050;-70
2022/08/31 11:51:54;;;;;;;1.42;0.40;;;16.30;99.90;;;;;;5092155;27;20051;-73
2022/08/31 11:54:25;;;;;;;0.68;0.50;;;16.20;99.90;;;;;;5059752;28;20473;-70
2022/08/31 11:56:55;;;;;;;0.75;0.47;;;16.20;99.90;;;;;;5086294;28;20048;-69
2022/08/31 11:59:30;;;;;;;1.67;0.40;;;16.30;99.90;;;;;;5085169;28;20066;-66
2022/08/31 12:02:18;;;;;;;0.95;0.77;;;16.40;99.90;;;;;;5087967;28;20157;-67
2022/08/31 12:04:46;;;;;;;2.90;0.98;;;16.30;99.90;;;;;;5085445;28;20484;-71
2022/08/31 12:07:28;;;;;;;1.60;0.52;;;16.10;99.90;;;;;;5086962;28;20388;-70
2022/08/31 12:10:14;;;;;;;1.42;0.40;;;16.10;99.90;;;;;;5083794;28;20133;-66
2022/08/31 12:12:48;;;;;;;2.22;0.35;;;16.20;99.90;;;;;;5093616;27;20058;-68
2022/08/31 12:15:19;;;;;;;3.00;1.35;;;16.30;99.90;;;;;;5096757;28;20125;-68
2022/08/31 12:18:09;;;;;;;1.25;0.32;;;16.50;99.90;;;;;;5086797;28;20131;-70
2022/08/31 12:23:43;;;;;;;0.60;0.40;;;16.40;99.90;;;;;;5086440;28;20138;-67
2022/08/31 12:26:28;;;;;;;1.38;0.88;;;16.40;99.90;;;;;;5065441;28;20529;-73
2022/08/31 12:29:17;;;;;;;1.45;0.88;;;16.30;99.90;;;;;;5084882;28;20137;-67
2022/08/31 12:32:07;;;;;;;0.40;0.30;;;16.40;99.90;;;;;;5085968;28;20028;-66
2022/08/31 12:34:45;;;;;;;0.30;0.20;;;16.50;99.90;;;;;;5084761;28;20167;-70
2022/08/31 12:37:36;;;;;;;1.55;0.50;;;16.50;99.90;;;;;;5086710;28;20044;-69
2022/08/31 12:40:17;;;;;;;0.43;0.30;;;16.80;99.90;;;;;;5075642;28;20056;-66
2022/08/31 12:43:07;;;;;;;0.43;0.30;;;16.90;99.90;;;;;;5079908;28;20046;-74
2022/08/31 12:45:53;;;;;;;2.42;0.43;;;17.00;99.90;;;;;;5075825;28;20208;-73
2022/08/31 12:48:44;;;;;;;4.65;0.45;;;16.90;99.90;;;;;;5086228;28;20074;-70
2022/08/31 12:51:17;;;;;;;;;;;17.10;99.90;;;;;;5083054;28;20043;-69
2022/08/31 12:54:11;;;;;;;0.73;0.32;;;17.00;99.90;;;;;;5087234;28;19935;-71
2022/08/31 12:56:58;;;;;;;1.15;0.40;;;17.00;99.90;;;;;;5071911;28;20075;-73
2022/08/31 12:59:50;;;;;;;0.45;0.35;;;16.80;99.90;;;;;;5071460;28;20093;-67
2022/08/31 13:02:30;;;;;;;0.73;0.52;;;16.70;99.90;;;;;;5081971;28;20134;-70
2022/08/31 13:04:59;;;;;;;2.58;0.63;;;16.70;99.90;;;;;;5084006;28;20048;-65
2022/08/31 13:07:32;;;;;;;2.13;0.90;;;16.70;99.90;;;;;;5086413;28;20036;-66
2022/08/31 13:10:07;;;;;;;1.55;0.45;;;16.70;99.90;;;;;;5085597;28;20044;-66
2022/08/31 13:12:35;;;;;;;3.58;0.63;;;16.50;99.90;;;;;;5083808;28;20109;-66
2022/08/31 13:15:07;;;;;;;1.00;0.45;;;16.70;99.90;;;;;;5081240;28;20575;-66
2022/08/31 13:17:38;;;;;;;1.75;0.60;;;16.90;99.90;;;;;;5083516;28;20487;-68
2022/08/31 13:20:06;;;;;;;0.63;0.10;;;16.70;99.90;;;;;;5067211;28;20051;-66
2022/08/31 13:22:40;;;;;;;1.70;0.50;;;16.80;99.90;;;;;;5084061;28;20109;-67
2022/08/31 13:25:15;;;;;;;0.50;0.30;;;16.80;99.90;;;;;;5084959;28;20381;-73
2022/08/31 13:27:50;;;;;;;2.97;0.30;;;16.90;99.90;;;;;;5086165;28;20089;-67
2022/08/31 13:30:21;;;;;;;1.60;0.25;;;17.10;99.90;;;;;;5077314;28;20142;-65
2022/08/31 13:32:53;;;;;;;0.28;0.17;;;17.30;99.90;;;;;;5082092;28;20908;-67
2022/08/31 13:35:23;;;;;;;0.85;0.28;;;17.40;99.90;;;;;;5085001;28;20513;-72
2022/08/31 13:38:04;;;;;;;0.60;0.35;;;17.30;99.90;;;;;;5085540;28;20221;-66
2022/08/31 13:40:35;;;;;;;0.52;0.50;;;17.30;99.90;;;;;;5090582;28;20043;-66
2022/08/31 13:43:09;;;;;;;1.27;0.47;;;17.30;99.90;;;;;;5090518;28;20154;-66
2022/08/31 13:45:56;;;;;;;0.55;0.35;;;17.40;99.90;;;;;;5083275;28;20048;-69